sensor_id;sensor_type;location;lat;lon;timestamp;temperature;humidity
63013;DHT22;62113;45.624;11.700;2022-09-01T00:02:06;24.40;72.60
63013;DHT22;62113;45.624;11.700;2022-09-01T00:04:37;24.30;72.60
63013;DHT22;62113;45.624;11.700;2022-09-01T00:07:06;24.30;72.70
63013;DHT22;62113;45.624;11.700;2022-09-01T00:09:33;24.30;72.60
63013;DHT22;62113;45.624;11.700;2022-09-01T00:11:59;24.30;72.60
63013;DHT22;62113;45.624;11.700;2022-09-01T00:14:27;24.30;72.50
63013;DHT22;62113;45.624;11.700;2022-09-01T00:16:53;24.30;72.60
63013;DHT22;62113;45.624;11.700;2022-09-01T00:19:20;24.30;72.30
63013;DHT22;62113;45.624;11.700;2022-09-01T00:21:45;24.30;72.30
63013;DHT22;62113;45.624;11.700;2022-09-01T00:24:13;24.30;72.40
63013;DHT22;62113;45.624;11.700;2022-09-01T00:26:40;24.30;72.30
63013;DHT22;62113;45.624;11.700;2022-09-01T00:29:06;24.20;72.40
63013;DHT22;62113;45.624;11.700;2022-09-01T00:31:32;24.20;72.30
63013;DHT22;62113;45.624;11.700;2022-09-01T00:33:59;24.20;72.30
63013;DHT22;62113;45.624;11.700;2022-09-01T00:36:25;24.20;72.40
63013;DHT22;62113;45.624;11.700;2022-09-01T00:38:51;24.20;72.20
63013;DHT22;62113;45.624;11.700;2022-09-01T00:41:20;24.20;72.30
63013;DHT22;62113;45.624;11.700;2022-09-01T00:43:52;24.20;72.10
63013;DHT22;62113;45.624;11.700;2022-09-01T00:46:30;24.30;72.10
63013;DHT22;62113;45.624;11.700;2022-09-01T00:49:10;24.20;71.90
63013;DHT22;62113;45.624;11.700;2022-09-01T00:51:37;24.30;71.90
63013;DHT22;62113;45.624;11.700;2022-09-01T00:54:08;24.20;71.80
63013;DHT22;62113;45.624;11.700;2022-09-01T00:56:38;24.30;71.60
63013;DHT22;62113;45.624;11.700;2022-09-01T00:59:05;24.30;71.70
63013;DHT22;62113;45.624;11.700;2022-09-01T01:01:32;24.30;71.50
63013;DHT22;62113;45.624;11.700;2022-09-01T01:04:00;24.20;71.50
63013;DHT22;62113;45.624;11.700;2022-09-01T01:06:27;24.20;71.50
63013;DHT22;62113;45.624;11.700;2022-09-01T01:08:56;24.20;71.60
63013;DHT22;62113;45.624;11.700;2022-09-01T01:11:29;24.20;71.60
63013;DHT22;62113;45.624;11.700;2022-09-01T01:16:24;24.20;71.60
63013;DHT22;62113;45.624;11.700;2022-09-01T01:18:51;24.20;71.60
63013;DHT22;62113;45.624;11.700;2022-09-01T01:21:28;24.20;71.60
63013;DHT22;62113;45.624;11.700;2022-09-01T01:24:25;24.20;71.50
63013;DHT22;62113;45.624;11.700;2022-09-01T01:26:52;24.20;71.50
63013;DHT22;62113;45.624;11.700;2022-09-01T01:29:19;24.20;71.50
63013;DHT22;62113;45.624;11.700;2022-09-01T01:31:46;24.20;71.50
63013;DHT22;62113;45.624;11.700;2022-09-01T01:34:13;24.20;71.60
63013;DHT22;62113;45.624;11.700;2022-09-01T01:36:39;24.20;71.60
63013;DHT22;62113;45.624;11.700;2022-09-01T01:39:10;24.20;71.60
63013;DHT22;62113;45.624;11.700;2022-09-01T01:41:38;24.20;71.50
63013;DHT22;62113;45.624;11.700;2022-09-01T01:44:06;24.20;71.50
63013;DHT22;62113;45.624;11.700;2022-09-01T01:46:33;24.20;71.50
63013;DHT22;62113;45.624;11.700;2022-09-01T01:48:59;24.20;71.40
63013;DHT22;62113;45.624;11.700;2022-09-01T01:51:29;24.20;71.30
63013;DHT22;62113;45.624;11.700;2022-09-01T01:53:56;24.20;71.30
63013;DHT22;62113;45.624;11.700;2022-09-01T01:56:24;24.10;71.20
63013;DHT22;62113;45.624;11.700;2022-09-01T01:58:54;24.20;71.10
63013;DHT22;62113;45.624;11.700;2022-09-01T02:01:25;24.20;71.00
63013;DHT22;62113;45.624;11.700;2022-09-01T02:03:54;24.20;70.90
63013;DHT22;62113;45.624;11.700;2022-09-01T02:06:22;24.20;70.80
63013;DHT22;62113;45.624;11.700;2022-09-01T02:08:51;24.20;70.70
63013;DHT22;62113;45.624;11.700;2022-09-01T02:11:18;24.20;70.60
63013;DHT22;62113;45.624;11.700;2022-09-01T02:13:44;24.20;70.50
63013;DHT22;62113;45.624;11.700;2022-09-01T02:16:11;24.20;70.30
63013;DHT22;62113;45.624;11.700;2022-09-01T02:18:40;24.20;70.30
63013;DHT22;62113;45.624;11.700;2022-09-01T02:21:08;24.20;70.30
63013;DHT22;62113;45.624;11.700;2022-09-01T02:23:39;24.20;70.30
63013;DHT22;62113;45.624;11.700;2022-09-01T02:26:07;24.20;70.20
63013;DHT22;62113;45.624;11.700;2022-09-01T02:28:36;24.20;70.20
63013;DHT22;62113;45.624;11.700;2022-09-01T02:31:08;24.20;70.20
63013;DHT22;62113;45.624;11.700;2022-09-01T02:33:36;24.20;70.20
63013;DHT22;62113;45.624;11.700;2022-09-01T02:36:09;24.20;70.10
63013;DHT22;62113;45.624;11.700;2022-09-01T02:38:38;24.20;69.90
63013;DHT22;62113;45.624;11.700;2022-09-01T02:41:07;24.20;69.80
63013;DHT22;62113;45.624;11.700;2022-09-01T02:43:33;24.30;69.00
63013;DHT22;62113;45.624;11.700;2022-09-01T02:46:00;24.30;68.80
63013;DHT22;62113;45.624;11.700;2022-09-01T02:48:31;24.30;68.80
63013;DHT22;62113;45.624;11.700;2022-09-01T02:51:01;24.20;68.90
63013;DHT22;62113;45.624;11.700;2022-09-01T02:53:28;24.20;69.00
63013;DHT22;62113;45.624;11.700;2022-09-01T02:55:55;24.20;69.10
63013;DHT22;62113;45.624;11.700;2022-09-01T02:58:27;24.20;68.80
63013;DHT22;62113;45.624;11.700;2022-09-01T03:00:55;24.20;68.60
63013;DHT22;62113;45.624;11.700;2022-09-01T03:03:21;24.20;68.40
63013;DHT22;62113;45.624;11.700;2022-09-01T03:05:50;24.20;68.40
63013;DHT22;62113;45.624;11.700;2022-09-01T03:08:20;24.20;68.50
63013;DHT22;62113;45.624;11.700;2022-09-01T03:10:45;24.20;68.40
63013;DHT22;62113;45.624;11.700;2022-09-01T03:13:16;24.20;67.80
63013;DHT22;62113;45.624;11.700;2022-09-01T03:15:43;24.10;67.70
63013;DHT22;62113;45.624;11.700;2022-09-01T03:18:10;24.10;67.90
63013;DHT22;62113;45.624;11.700;2022-09-01T03:20:38;24.20;67.90
63013;DHT22;62113;45.624;11.700;2022-09-01T03:23:09;24.20;67.40
63013;DHT22;62113;45.624;11.700;2022-09-01T03:25:36;24.20;67.00
63013;DHT22;62113;45.624;11.700;2022-09-01T03:28:03;24.10;66.40
63013;DHT22;62113;45.624;11.700;2022-09-01T03:30:32;24.10;66.70
63013;DHT22;62113;45.624;11.700;2022-09-01T03:32:59;24.10;66.90
63013;DHT22;62113;45.624;11.700;2022-09-01T03:35:26;24.10;66.90
63013;DHT22;62113;45.624;11.700;2022-09-01T03:37:53;24.10;66.70
63013;DHT22;62113;45.624;11.700;2022-09-01T03:40:25;24.20;66.60
63013;DHT22;62113;45.624;11.700;2022-09-01T03:42:53;24.20;66.50
63013;DHT22;62113;45.624;11.700;2022-09-01T03:45:20;24.20;65.40
63013;DHT22;62113;45.624;11.700;2022-09-01T03:47:51;24.20;65.40
63013;DHT22;62113;45.624;11.700;2022-09-01T03:50:19;24.20;64.90
63013;DHT22;62113;45.624;11.700;2022-09-01T03:52:46;24.20;64.60
63013;DHT22;62113;45.624;11.700;2022-09-01T03:55:17;24.20;63.20
63013;DHT22;62113;45.624;11.700;2022-09-01T03:57:49;24.30;62.40
63013;DHT22;62113;45.624;11.700;2022-09-01T04:00:15;24.30;61.20
63013;DHT22;62113;45.624;11.700;2022-09-01T04:02:46;24.30;61.90
63013;DHT22;62113;45.624;11.700;2022-09-01T04:05:14;24.20;61.70
63013;DHT22;62113;45.624;11.700;2022-09-01T04:07:40;24.20;60.70
63013;DHT22;62113;45.624;11.700;2022-09-01T04:10:06;24.20;59.70
63013;DHT22;62113;45.624;11.700;2022-09-01T04:12:36;24.20;59.90
63013;DHT22;62113;45.624;11.700;2022-09-01T04:15:03;24.20;59.70
63013;DHT22;62113;45.624;11.700;2022-09-01T04:17:30;24.20;59.60
63013;DHT22;62113;45.624;11.700;2022-09-01T04:20:14;24.10;60.40
63013;DHT22;62113;45.624;11.700;2022-09-01T04:22:44;24.10;60.10
63013;DHT22;62113;45.624;11.700;2022-09-01T04:25:12;24.00;60.30
63013;DHT22;62113;45.624;11.700;2022-09-01T04:27:38;24.00;60.70
63013;DHT22;62113;45.624;11.700;2022-09-01T04:30:05;23.90;61.00
63013;DHT22;62113;45.624;11.700;2022-09-01T04:32:36;24.00;61.10
63013;DHT22;62113;45.624;11.700;2022-09-01T04:35:06;23.90;61.10
63013;DHT22;62113;45.624;11.700;2022-09-01T04:37:32;24.00;60.90
63013;DHT22;62113;45.624;11.700;2022-09-01T04:40:02;24.00;60.90
63013;DHT22;62113;45.624;11.700;2022-09-01T04:42:29;24.00;61.30
63013;DHT22;62113;45.624;11.700;2022-09-01T04:44:57;24.00;61.40
63013;DHT22;62113;45.624;11.700;2022-09-01T04:47:25;24.00;61.50
63013;DHT22;62113;45.624;11.700;2022-09-01T04:49:58;23.90;61.20
63013;DHT22;62113;45.624;11.700;2022-09-01T04:52:27;24.00;61.50
63013;DHT22;62113;45.624;11.700;2022-09-01T04:54:53;23.90;61.70
63013;DHT22;62113;45.624;11.700;2022-09-01T04:57:20;23.90;61.90
63013;DHT22;62113;45.624;11.700;2022-09-01T04:59:46;23.90;61.90
63013;DHT22;62113;45.624;11.700;2022-09-01T05:02:12;23.90;62.10
63013;DHT22;62113;45.624;11.700;2022-09-01T05:04:38;23.90;62.20
63013;DHT22;62113;45.624;11.700;2022-09-01T05:07:04;23.90;62.30
63013;DHT22;62113;45.624;11.700;2022-09-01T05:09:32;24.00;62.30
63013;DHT22;62113;45.624;11.700;2022-09-01T05:12:00;24.00;62.20
63013;DHT22;62113;45.624;11.700;2022-09-01T05:14:39;24.00;62.20
63013;DHT22;62113;45.624;11.700;2022-09-01T05:17:09;24.00;62.30
63013;DHT22;62113;45.624;11.700;2022-09-01T05:19:39;24.00;62.60
63013;DHT22;62113;45.624;11.700;2022-09-01T05:22:06;24.10;62.30
63013;DHT22;62113;45.624;11.700;2022-09-01T05:24:35;24.10;62.40
63013;DHT22;62113;45.624;11.700;2022-09-01T05:27:03;24.10;62.60
63013;DHT22;62113;45.624;11.700;2022-09-01T05:29:29;24.10;62.60
63013;DHT22;62113;45.624;11.700;2022-09-01T05:31:55;24.10;62.70
63013;DHT22;62113;45.624;11.700;2022-09-01T05:34:22;24.10;62.70
63013;DHT22;62113;45.624;11.700;2022-09-01T05:36:57;24.10;62.90
63013;DHT22;62113;45.624;11.700;2022-09-01T05:39:25;24.10;63.10
63013;DHT22;62113;45.624;11.700;2022-09-01T05:41:52;24.10;63.20
63013;DHT22;62113;45.624;11.700;2022-09-01T05:44:19;24.20;63.30
63013;DHT22;62113;45.624;11.700;2022-09-01T05:46:47;24.20;63.30
63013;DHT22;62113;45.624;11.700;2022-09-01T05:49:14;24.20;63.40
63013;DHT22;62113;45.624;11.700;2022-09-01T05:51:50;24.20;63.40
63013;DHT22;62113;45.624;11.700;2022-09-01T05:54:22;24.20;63.40
63013;DHT22;62113;45.624;11.700;2022-09-01T05:56:49;24.30;63.20
63013;DHT22;62113;45.624;11.700;2022-09-01T05:59:18;24.30;63.10
63013;DHT22;62113;45.624;11.700;2022-09-01T06:01:46;24.30;63.10
63013;DHT22;62113;45.624;11.700;2022-09-01T06:04:12;24.30;63.20
63013;DHT22;62113;45.624;11.700;2022-09-01T06:06:43;24.40;63.20
63013;DHT22;62113;45.624;11.700;2022-09-01T06:09:15;24.40;63.00
63013;DHT22;62113;45.624;11.700;2022-09-01T06:11:43;24.50;63.20
63013;DHT22;62113;45.624;11.700;2022-09-01T06:14:12;24.60;63.50
63013;DHT22;62113;45.624;11.700;2022-09-01T06:16:38;24.70;62.60
63013;DHT22;62113;45.624;11.700;2022-09-01T06:19:04;24.80;62.70
63013;DHT22;62113;45.624;11.700;2022-09-01T06:21:30;24.90;62.70
63013;DHT22;62113;45.624;11.700;2022-09-01T06:23:57;25.00;62.50
63013;DHT22;62113;45.624;11.700;2022-09-01T06:26:31;25.00;62.30
63013;DHT22;62113;45.624;11.700;2022-09-01T06:29:01;25.20;58.50
63013;DHT22;62113;45.624;11.700;2022-09-01T06:31:30;25.20;58.90
63013;DHT22;62113;45.624;11.700;2022-09-01T06:33:59;25.20;57.50
63013;DHT22;62113;45.624;11.700;2022-09-01T06:36:26;25.10;57.90
63013;DHT22;62113;45.624;11.700;2022-09-01T06:38:53;25.00;57.70
63013;DHT22;62113;45.624;11.700;2022-09-01T06:41:20;25.00;57.70
63013;DHT22;62113;45.624;11.700;2022-09-01T06:43:49;25.00;57.90
63013;DHT22;62113;45.624;11.700;2022-09-01T06:46:15;25.00;58.50
63013;DHT22;62113;45.624;11.700;2022-09-01T06:48:42;25.00;59.20
63013;DHT22;62113;45.624;11.700;2022-09-01T06:51:21;25.20;59.30
63013;DHT22;62113;45.624;11.700;2022-09-01T06:53:49;25.20;57.50
63013;DHT22;62113;45.624;11.700;2022-09-01T06:56:16;25.30;57.30
63013;DHT22;62113;45.624;11.700;2022-09-01T06:58:43;25.30;57.00
63013;DHT22;62113;45.624;11.700;2022-09-01T07:01:14;25.40;57.00
63013;DHT22;62113;45.624;11.700;2022-09-01T07:03:45;25.40;56.90
63013;DHT22;62113;45.624;11.700;2022-09-01T07:06:12;25.40;56.40
63013;DHT22;62113;45.624;11.700;2022-09-01T07:08:40;25.40;57.20
63013;DHT22;62113;45.624;11.700;2022-09-01T07:11:08;25.50;56.70
63013;DHT22;62113;45.624;11.700;2022-09-01T07:13:41;25.60;56.20
63013;DHT22;62113;45.624;11.700;2022-09-01T07:16:15;25.60;55.90
63013;DHT22;62113;45.624;11.700;2022-09-01T07:18:45;25.60;56.00
63013;DHT22;62113;45.624;11.700;2022-09-01T07:21:11;25.70;56.10
63013;DHT22;62113;45.624;11.700;2022-09-01T07:23:36;25.70;56.50
63013;DHT22;62113;45.624;11.700;2022-09-01T07:26:06;25.80;56.10
63013;DHT22;62113;45.624;11.700;2022-09-01T07:28:33;25.90;55.70
63013;DHT22;62113;45.624;11.700;2022-09-01T07:30:58;26.10;55.40
63013;DHT22;62113;45.624;11.700;2022-09-01T07:33:25;26.20;55.60
63013;DHT22;62113;45.624;11.700;2022-09-01T07:35:52;26.40;54.20
63013;DHT22;62113;45.624;11.700;2022-09-01T07:38:23;26.60;53.00
63013;DHT22;62113;45.624;11.700;2022-09-01T07:40:49;26.70;51.90
63013;DHT22;62113;45.624;11.700;2022-09-01T07:43:22;27.00;52.40
63013;DHT22;62113;45.624;11.700;2022-09-01T07:45:52;27.30;52.80
63013;DHT22;62113;45.624;11.700;2022-09-01T07:48:22;27.60;52.50
63013;DHT22;62113;45.624;11.700;2022-09-01T07:50:51;27.80;52.40
63013;DHT22;62113;45.624;11.700;2022-09-01T07:53:26;28.00;51.30
63013;DHT22;62113;45.624;11.700;2022-09-01T07:56:00;28.30;51.50
63013;DHT22;62113;45.624;11.700;2022-09-01T07:58:27;28.50;50.60
63013;DHT22;62113;45.624;11.700;2022-09-01T08:00:54;28.80;50.00
63013;DHT22;62113;45.624;11.700;2022-09-01T08:03:28;29.30;48.50
63013;DHT22;62113;45.624;11.700;2022-09-01T08:05:54;30.20;48.70
63013;DHT22;62113;45.624;11.700;2022-09-01T08:08:25;31.00;45.80
63013;DHT22;62113;45.624;11.700;2022-09-01T08:10:51;31.40;44.10
63013;DHT22;62113;45.624;11.700;2022-09-01T08:13:17;31.20;41.80
63013;DHT22;62113;45.624;11.700;2022-09-01T08:15:43;31.00;42.40
63013;DHT22;62113;45.624;11.700;2022-09-01T08:18:10;30.90;43.40
63013;DHT22;62113;45.624;11.700;2022-09-01T08:20:37;30.80;44.30
63013;DHT22;62113;45.624;11.700;2022-09-01T08:23:04;30.80;44.50
63013;DHT22;62113;45.624;11.700;2022-09-01T08:25:34;30.70;44.90
63013;DHT22;62113;45.624;11.700;2022-09-01T08:28:01;30.50;45.30
63013;DHT22;62113;45.624;11.700;2022-09-01T08:30:27;30.50;45.50
63013;DHT22;62113;45.624;11.700;2022-09-01T08:32:53;30.40;43.80
63013;DHT22;62113;45.624;11.700;2022-09-01T08:35:18;30.30;43.40
63013;DHT22;62113;45.624;11.700;2022-09-01T08:37:44;30.30;43.80
63013;DHT22;62113;45.624;11.700;2022-09-01T08:40:16;30.30;43.90
63013;DHT22;62113;45.624;11.700;2022-09-01T08:45:31;30.20;44.70
63013;DHT22;62113;45.624;11.700;2022-09-01T08:48:13;30.00;45.20
63013;DHT22;62113;45.624;11.700;2022-09-01T08:50:40;29.80;44.30
63013;DHT22;62113;45.624;11.700;2022-09-01T08:55:54;29.40;45.80
63013;DHT22;62113;45.624;11.700;2022-09-01T08:58:20;29.30;46.40
63013;DHT22;62113;45.624;11.700;2022-09-01T09:00:59;29.20;45.70
63013;DHT22;62113;45.624;11.700;2022-09-01T09:04:03;29.00;46.20
63013;DHT22;62113;45.624;11.700;2022-09-01T09:09:01;28.80;47.20
63013;DHT22;62113;45.624;11.700;2022-09-01T09:14:54;28.60;47.10
63013;DHT22;62113;45.624;11.700;2022-09-01T09:17:26;28.40;47.00
63013;DHT22;62113;45.624;11.700;2022-09-01T09:19:53;28.30;47.60
63013;DHT22;62113;45.624;11.700;2022-09-01T09:22:20;28.20;47.80
63013;DHT22;62113;45.624;11.700;2022-09-01T09:24:57;28.20;48.00
63013;DHT22;62113;45.624;11.700;2022-09-01T09:29:53;28.10;48.50
63013;DHT22;62113;45.624;11.700;2022-09-01T09:32:20;28.20;47.60
63013;DHT22;62113;45.624;11.700;2022-09-01T09:34:47;28.10;46.90
63013;DHT22;62113;45.624;11.700;2022-09-01T09:40:13;28.10;47.90
63013;DHT22;62113;45.624;11.700;2022-09-01T09:42:59;28.20;48.40
63013;DHT22;62113;45.624;11.700;2022-09-01T09:45:46;28.30;46.70
63013;DHT22;62113;45.624;11.700;2022-09-01T09:48:30;28.30;47.30
63013;DHT22;62113;45.624;11.700;2022-09-01T09:51:16;28.40;47.10
63013;DHT22;62113;45.624;11.700;2022-09-01T09:53:44;28.40;47.40
63013;DHT22;62113;45.624;11.700;2022-09-01T09:56:22;28.50;47.40
63013;DHT22;62113;45.624;11.700;2022-09-01T09:58:51;28.50;47.50
63013;DHT22;62113;45.624;11.700;2022-09-01T10:03:56;28.70;47.40
63013;DHT22;62113;45.624;11.700;2022-09-01T10:06:42;28.70;46.60
63013;DHT22;62113;45.624;11.700;2022-09-01T10:09:32;28.70;46.20
63013;DHT22;62113;45.624;11.700;2022-09-01T10:11:58;28.60;47.00
63013;DHT22;62113;45.624;11.700;2022-09-01T10:14:26;28.50;47.50
63013;DHT22;62113;45.624;11.700;2022-09-01T10:17:01;28.40;47.90
63013;DHT22;62113;45.624;11.700;2022-09-01T10:19:28;28.50;48.30
63013;DHT22;62113;45.624;11.700;2022-09-01T10:21:57;28.40;47.30
63013;DHT22;62113;45.624;11.700;2022-09-01T10:24:32;28.30;47.80
63013;DHT22;62113;45.624;11.700;2022-09-01T10:27:02;28.30;47.50
63013;DHT22;62113;45.624;11.700;2022-09-01T10:29:35;28.30;48.10
63013;DHT22;62113;45.624;11.700;2022-09-01T10:32:07;28.30;48.20
63013;DHT22;62113;45.624;11.700;2022-09-01T10:34:36;28.20;48.40
63013;DHT22;62113;45.624;11.700;2022-09-01T10:37:04;28.10;48.00
63013;DHT22;62113;45.624;11.700;2022-09-01T10:39:30;28.00;48.40
63013;DHT22;62113;45.624;11.700;2022-09-01T10:41:57;28.00;49.00
63013;DHT22;62113;45.624;11.700;2022-09-01T10:44:32;27.90;48.90
63013;DHT22;62113;45.624;11.700;2022-09-01T10:47:10;27.80;49.60
63013;DHT22;62113;45.624;11.700;2022-09-01T10:55:09;27.70;48.70
63013;DHT22;62113;45.624;11.700;2022-09-01T10:57:59;27.70;49.00
63013;DHT22;62113;45.624;11.700;2022-09-01T11:08:21;28.00;47.30
63013;DHT22;62113;45.624;11.700;2022-09-01T11:16:40;28.20;47.30
63013;DHT22;62113;45.624;11.700;2022-09-01T11:27:05;28.40;47.70
63013;DHT22;62113;45.624;11.700;2022-09-01T11:29:50;28.50;47.50
63013;DHT22;62113;45.624;11.700;2022-09-01T11:32:18;28.60;46.00
63013;DHT22;62113;45.624;11.700;2022-09-01T11:34:47;28.50;44.90
63013;DHT22;62113;45.624;11.700;2022-09-01T11:37:15;28.50;45.00
63013;DHT22;62113;45.624;11.700;2022-09-01T11:39:47;28.40;44.60
63013;DHT22;62113;45.624;11.700;2022-09-01T11:42:40;28.40;45.20
63013;DHT22;62113;45.624;11.700;2022-09-01T11:45:27;28.40;45.00
63013;DHT22;62113;45.624;11.700;2022-09-01T11:47:58;28.40;45.30
63013;DHT22;62113;45.624;11.700;2022-09-01T11:50:30;28.30;43.90
63013;DHT22;62113;45.624;11.700;2022-09-01T11:55:53;28.30;45.00
63013;DHT22;62113;45.624;11.700;2022-09-01T11:58:30;28.30;45.20
63013;DHT22;62113;45.624;11.700;2022-09-01T12:01:12;28.30;45.20
63013;DHT22;62113;45.624;11.700;2022-09-01T12:03:38;28.30;45.90
63013;DHT22;62113;45.624;11.700;2022-09-01T12:06:06;28.40;45.90
63013;DHT22;62113;45.624;11.700;2022-09-01T12:08:36;28.40;45.60
63013;DHT22;62113;45.624;11.700;2022-09-01T12:11:18;28.30;43.90
63013;DHT22;62113;45.624;11.700;2022-09-01T12:14:17;28.30;44.70
63013;DHT22;62113;45.624;11.700;2022-09-01T12:16:42;28.30;44.80
63013;DHT22;62113;45.624;11.700;2022-09-01T12:19:39;28.20;44.20
63013;DHT22;62113;45.624;11.700;2022-09-01T12:22:16;28.30;45.20
63013;DHT22;62113;45.624;11.700;2022-09-01T12:24:51;28.40;45.10
63013;DHT22;62113;45.624;11.700;2022-09-01T12:27:17;28.40;44.70
63013;DHT22;62113;45.624;11.700;2022-09-01T12:29:44;28.40;44.40
63013;DHT22;62113;45.624;11.700;2022-09-01T12:32:10;28.40;43.10
63013;DHT22;62113;45.624;11.700;2022-09-01T12:34:44;28.50;43.90
63013;DHT22;62113;45.624;11.700;2022-09-01T12:37:24;28.50;43.10
63013;DHT22;62113;45.624;11.700;2022-09-01T12:39:55;28.50;44.30
63013;DHT22;62113;45.624;11.700;2022-09-01T12:42:31;28.50;43.90
63013;DHT22;62113;45.624;11.700;2022-09-01T12:45:02;28.60;43.80
63013;DHT22;62113;45.624;11.700;2022-09-01T12:52:49;28.70;44.10
63013;DHT22;62113;45.624;11.700;2022-09-01T12:55:21;28.80;46.20
63013;DHT22;62113;45.624;11.700;2022-09-01T12:57:54;28.80;44.70
63013;DHT22;62113;45.624;11.700;2022-09-01T13:00:23;28.90;45.40
63013;DHT22;62113;45.624;11.700;2022-09-01T13:05:35;28.80;44.70
63013;DHT22;62113;45.624;11.700;2022-09-01T13:08:04;28.70;44.60
63013;DHT22;62113;45.624;11.700;2022-09-01T13:10:36;28.70;45.00
63013;DHT22;62113;45.624;11.700;2022-09-01T13:13:04;28.70;46.30
63013;DHT22;62113;45.624;11.700;2022-09-01T13:15:30;28.70;45.10
63013;DHT22;62113;45.624;11.700;2022-09-01T13:17:56;28.70;45.50
63013;DHT22;62113;45.624;11.700;2022-09-01T13:20:22;28.80;46.40
63013;DHT22;62113;45.624;11.700;2022-09-01T13:22:48;28.90;47.00
63013;DHT22;62113;45.624;11.700;2022-09-01T13:25:17;29.00;45.50
63013;DHT22;62113;45.624;11.700;2022-09-01T13:27:44;29.00;45.30
63013;DHT22;62113;45.624;11.700;2022-09-01T13:30:19;29.00;44.20
63013;DHT22;62113;45.624;11.700;2022-09-01T13:32:46;28.90;44.00
63013;DHT22;62113;45.624;11.700;2022-09-01T13:35:14;28.80;44.90
63013;DHT22;62113;45.624;11.700;2022-09-01T13:37:41;28.70;45.20
63013;DHT22;62113;45.624;11.700;2022-09-01T13:40:07;28.70;45.00
63013;DHT22;62113;45.624;11.700;2022-09-01T13:42:45;28.70;45.20
63013;DHT22;62113;45.624;11.700;2022-09-01T13:45:13;28.60;46.00
63013;DHT22;62113;45.624;11.700;2022-09-01T13:47:39;28.50;46.60
63013;DHT22;62113;45.624;11.700;2022-09-01T13:50:06;28.60;46.30
63013;DHT22;62113;45.624;11.700;2022-09-01T13:52:32;28.50;46.00
63013;DHT22;62113;45.624;11.700;2022-09-01T13:54:58;28.60;45.90
63013;DHT22;62113;45.624;11.700;2022-09-01T13:57:26;28.60;47.00
63013;DHT22;62113;45.624;11.700;2022-09-01T13:59:51;28.60;46.10
63013;DHT22;62113;45.624;11.700;2022-09-01T14:02:17;28.50;46.80
63013;DHT22;62113;45.624;11.700;2022-09-01T14:04:43;28.50;45.70
63013;DHT22;62113;45.624;11.700;2022-09-01T14:07:08;28.40;45.70
63013;DHT22;62113;45.624;11.700;2022-09-01T14:09:34;28.40;46.00
63013;DHT22;62113;45.624;11.700;2022-09-01T14:12:00;28.30;46.00
63013;DHT22;62113;45.624;11.700;2022-09-01T14:14:25;28.20;46.00
63013;DHT22;62113;45.624;11.700;2022-09-01T14:16:51;28.20;47.00
63013;DHT22;62113;45.624;11.700;2022-09-01T14:19:17;28.20;48.40
63013;DHT22;62113;45.624;11.700;2022-09-01T14:21:43;28.20;49.40
63013;DHT22;62113;45.624;11.700;2022-09-01T14:24:09;28.20;50.00
63013;DHT22;62113;45.624;11.700;2022-09-01T14:26:34;28.20;50.20
63013;DHT22;62113;45.624;11.700;2022-09-01T14:29:00;28.20;50.40
63013;DHT22;62113;45.624;11.700;2022-09-01T14:31:27;28.20;50.60
63013;DHT22;62113;45.624;11.700;2022-09-01T14:33:54;28.20;50.50
63013;DHT22;62113;45.624;11.700;2022-09-01T14:36:22;28.20;50.80
63013;DHT22;62113;45.624;11.700;2022-09-01T14:38:49;28.10;50.90
63013;DHT22;62113;45.624;11.700;2022-09-01T14:41:17;28.10;50.20
63013;DHT22;62113;45.624;11.700;2022-09-01T14:43:50;27.90;50.80
63013;DHT22;62113;45.624;11.700;2022-09-01T14:46:16;27.80;50.10
63013;DHT22;62113;45.624;11.700;2022-09-01T14:48:44;27.60;49.40
63013;DHT22;62113;45.624;11.700;2022-09-01T14:51:22;27.40;49.80
63013;DHT22;62113;45.624;11.700;2022-09-01T14:53:49;27.30;50.60
63013;DHT22;62113;45.624;11.700;2022-09-01T14:56:15;27.20;50.50
63013;DHT22;62113;45.624;11.700;2022-09-01T14:58:43;27.20;50.50
63013;DHT22;62113;45.624;11.700;2022-09-01T15:01:12;27.10;50.50
63013;DHT22;62113;45.624;11.700;2022-09-01T15:03:39;27.10;48.80
63013;DHT22;62113;45.624;11.700;2022-09-01T15:06:05;27.10;48.90
63013;DHT22;62113;45.624;11.700;2022-09-01T15:08:31;27.10;49.20
63013;DHT22;62113;45.624;11.700;2022-09-01T15:10:56;27.00;48.70
63013;DHT22;62113;45.624;11.700;2022-09-01T15:13:22;26.90;48.50
63013;DHT22;62113;45.624;11.700;2022-09-01T15:15:48;26.90;48.40
63013;DHT22;62113;45.624;11.700;2022-09-01T15:18:13;26.90;48.10
63013;DHT22;62113;45.624;11.700;2022-09-01T15:20:40;26.90;48.20
63013;DHT22;62113;45.624;11.700;2022-09-01T15:23:14;26.80;47.60
63013;DHT22;62113;45.624;11.700;2022-09-01T15:25:40;26.80;47.80
63013;DHT22;62113;45.624;11.700;2022-09-01T15:28:06;26.80;47.40
63013;DHT22;62113;45.624;11.700;2022-09-01T15:30:32;26.70;48.00
63013;DHT22;62113;45.624;11.700;2022-09-01T15:32:58;26.70;47.70
63013;DHT22;62113;45.624;11.700;2022-09-01T15:35:23;26.70;48.20
63013;DHT22;62113;45.624;11.700;2022-09-01T15:37:50;26.70;48.50
63013;DHT22;62113;45.624;11.700;2022-09-01T15:40:17;26.80;49.60
63013;DHT22;62113;45.624;11.700;2022-09-01T15:42:42;26.90;50.70
63013;DHT22;62113;45.624;11.700;2022-09-01T15:45:15;27.00;51.70
63013;DHT22;62113;45.624;11.700;2022-09-01T15:47:41;27.00;51.50
63013;DHT22;62113;45.624;11.700;2022-09-01T15:50:09;27.10;51.80
63013;DHT22;62113;45.624;11.700;2022-09-01T15:52:52;27.10;51.80
63013;DHT22;62113;45.624;11.700;2022-09-01T15:55:21;27.10;51.90
63013;DHT22;62113;45.624;11.700;2022-09-01T15:57:47;27.10;51.90
63013;DHT22;62113;45.624;11.700;2022-09-01T16:00:14;27.10;52.20
63013;DHT22;62113;45.624;11.700;2022-09-01T16:02:40;27.00;51.60
63013;DHT22;62113;45.624;11.700;2022-09-01T16:05:06;26.80;49.90
63013;DHT22;62113;45.624;11.700;2022-09-01T16:07:32;26.70;47.90
63013;DHT22;62113;45.624;11.700;2022-09-01T16:09:58;26.60;46.90
63013;DHT22;62113;45.624;11.700;2022-09-01T16:12:24;26.40;47.60
63013;DHT22;62113;45.624;11.700;2022-09-01T16:14:51;26.40;46.50
63013;DHT22;62113;45.624;11.700;2022-09-01T16:20:18;26.20;46.10
63013;DHT22;62113;45.624;11.700;2022-09-01T16:22:52;26.10;45.80
63013;DHT22;62113;45.624;11.700;2022-09-01T16:25:31;26.00;47.10
63013;DHT22;62113;45.624;11.700;2022-09-01T16:28:03;26.00;46.50
63013;DHT22;62113;45.624;11.700;2022-09-01T16:30:32;26.00;45.70
63013;DHT22;62113;45.624;11.700;2022-09-01T16:33:02;26.00;45.30